Time;durP1;ratioP1;P1;durP2;ratioP2;P2;SDS_P1;SDS_P2;PMS_P1;PMS_P2;Temp;Humidity;BMP_temperature;BMP_pressure;BME280_temperature;BME280_humidity;BME280_pressure;Samples;Min_cycle;Max_cycle;Signal;HPM_P1;HPM_P2
2021/05/25 00:02:18;;;;;;;7.32;4.80;;;;;;;;;;5093619;28;20077;-66
2021/05/25 00:04:44;;;;;;;7.43;5.22;;;;;;;;;;5093574;28;20013;-65
2021/05/25 00:07:09;;;;;;;7.22;5.03;;;;;;;;;;5093692;28;20048;-66
2021/05/25 00:09:35;;;;;;;6.68;4.97;;;;;;;;;;5093568;28;20026;-66
2021/05/25 00:12:00;;;;;;;6.57;4.82;;;;;;;;;;5092228;28;20073;-66
2021/05/25 00:14:28;;;;;;;7.28;5.60;;;;;;;;;;5093443;28;20518;-66
2021/05/25 00:16:53;;;;;;;8.85;6.60;;;;;;;;;;5093452;28;20028;-66
2021/05/25 00:19:19;;;;;;;8.70;6.55;;;;;;;;;;5092400;28;20327;-66
2021/05/25 00:21:45;;;;;;;8.95;6.32;;;;;;;;;;5093099;28;20459;-66
2021/05/25 00:24:11;;;;;;;7.38;5.38;;;;;;;;;;5094206;28;20107;-65
2021/05/25 00:26:36;;;;;;;8.43;6.35;;;;;;;;;;5097440;28;20089;-66
2021/05/25 00:29:02;;;;;;;6.22;5.15;;;;;;;;;;5097298;28;20016;-66
2021/05/25 00:31:28;;;;;;;6.38;4.25;;;;;;;;;;5096974;28;20028;-66
2021/05/25 00:33:53;;;;;;;5.43;4.45;;;;;;;;;;5097207;28;20028;-65
2021/05/25 00:36:21;;;;;;;4.80;4.30;;;;;;;;;;5096499;28;20036;-65
2021/05/25 00:38:47;;;;;;;4.88;4.10;;;;;;;;;;5097374;28;20032;-65
2021/05/25 00:41:12;;;;;;;4.68;4.18;;;;;;;;;;5096884;28;20032;-62
2021/05/25 00:43:38;;;;;;;6.65;5.07;;;;;;;;;;5095772;28;20465;-62
2021/05/25 00:46:03;;;;;;;5.60;4.70;;;;;;;;;;5097007;28;20501;-62
2021/05/25 00:48:28;;;;;;;5.82;4.53;;;;;;;;;;5095572;28;20012;-62
2021/05/25 00:50:55;;;;;;;5.40;4.32;;;;;;;;;;5096796;28;20082;-62
2021/05/25 00:53:21;;;;;;;4.78;4.30;;;;;;;;;;5095667;28;20534;-62
2021/05/25 00:55:46;;;;;;;5.45;4.53;;;;;;;;;;5095642;28;20063;-62
2021/05/25 00:58:12;;;;;;;6.60;4.30;;;;;;;;;;5096821;28;20043;-62
2021/05/25 01:00:44;;;;;;;6.68;3.78;;;;;;;;;;5096726;28;20437;-61
2021/05/25 01:03:10;;;;;;;7.22;3.47;;;;;;;;;;5095531;28;20024;-62
2021/05/25 01:05:36;;;;;;;5.13;3.80;;;;;;;;;;5096717;28;20115;-62
2021/05/25 01:08:02;;;;;;;4.13;3.33;;;;;;;;;;5096578;28;20059;-62
2021/05/25 01:10:34;;;;;;;5.10;3.67;;;;;;;;;;5095554;28;20370;-62
2021/05/25 01:13:03;;;;;;;3.92;3.55;;;;;;;;;;5096840;28;20103;-62
2021/05/25 01:15:29;;;;;;;4.43;3.47;;;;;;;;;;5096435;28;20123;-63
2021/05/25 01:17:55;;;;;;;3.92;2.95;;;;;;;;;;5095082;28;20419;-62
2021/05/25 01:20:22;;;;;;;5.13;3.60;;;;;;;;;;5096507;28;20069;-62
2021/05/25 01:22:47;;;;;;;3.90;3.50;;;;;;;;;;5096311;28;20032;-62
2021/05/25 01:25:14;;;;;;;4.47;3.40;;;;;;;;;;5095615;28;20030;-63
2021/05/25 01:27:40;;;;;;;4.18;3.33;;;;;;;;;;5096484;28;20028;-62
2021/05/25 01:30:07;;;;;;;6.05;3.28;;;;;;;;;;5096092;28;20103;-62
2021/05/25 01:32:32;;;;;;;4.50;3.17;;;;;;;;;;5094817;28;20024;-62
2021/05/25 01:34:58;;;;;;;5.20;3.50;;;;;;;;;;5095651;28;20016;-62
2021/05/25 01:37:23;;;;;;;4.60;3.30;;;;;;;;;;5095062;28;20111;-62
2021/05/25 01:39:53;;;;;;;5.35;3.33;;;;;;;;;;5095818;28;20023;-62
2021/05/25 01:42:19;;;;;;;3.80;2.85;;;;;;;;;;5096023;28;20107;-62
2021/05/25 01:44:44;;;;;;;3.47;2.80;;;;;;;;;;5095893;28;20462;-62
2021/05/25 01:47:10;;;;;;;4.70;3.13;;;;;;;;;;5095978;28;20024;-62
2021/05/25 01:49:35;;;;;;;3.05;2.80;;;;;;;;;;5095943;28;20197;-62
2021/05/25 01:52:01;;;;;;;4.07;2.90;;;;;;;;;;5095739;28;20478;-62
2021/05/25 01:54:27;;;;;;;3.10;2.83;;;;;;;;;;5095555;28;20044;-62
2021/05/25 01:56:52;;;;;;;5.43;3.17;;;;;;;;;;5095367;28;20036;-61
2021/05/25 01:59:18;;;;;;;5.47;3.40;;;;;;;;;;5094495;28;20016;-61
2021/05/25 02:01:43;;;;;;;5.07;3.17;;;;;;;;;;5095907;28;20020;-62
2021/05/25 02:04:09;;;;;;;5.28;3.10;;;;;;;;;;5095724;28;20068;-62
2021/05/25 02:06:34;;;;;;;3.10;2.80;;;;;;;;;;5095710;28;20075;-62
2021/05/25 02:09:02;;;;;;;3.05;2.85;;;;;;;;;;5095284;28;20008;-61
2021/05/25 02:11:28;;;;;;;4.38;3.40;;;;;;;;;;5095341;28;20024;-62
2021/05/25 02:13:53;;;;;;;3.35;2.83;;;;;;;;;;5095342;28;20023;-62
2021/05/25 02:16:31;;;;;;;3.72;2.75;;;;;;;;;;5095338;28;20036;-62
2021/05/25 02:19:01;;;;;;;3.30;2.90;;;;;;;;;;5092972;28;20036;-62
2021/05/25 02:21:26;;;;;;;2.63;2.42;;;;;;;;;;5094877;28;20031;-62
2021/05/25 02:23:52;;;;;;;3.33;2.90;;;;;;;;;;5094861;28;20492;-61
2021/05/25 02:26:17;;;;;;;2.95;2.70;;;;;;;;;;5095293;28;20020;-61
2021/05/25 02:28:43;;;;;;;2.92;2.72;;;;;;;;;;5095203;28;20397;-61
2021/05/25 02:31:09;;;;;;;2.83;2.40;;;;;;;;;;5094980;28;20016;-61
2021/05/25 02:33:34;;;;;;;2.85;2.60;;;;;;;;;;5094868;28;20036;-62
2021/05/25 02:36:00;;;;;;;2.60;2.05;;;;;;;;;;5094265;28;20097;-61
2021/05/25 02:38:27;;;;;;;4.43;2.53;;;;;;;;;;5094671;28;20040;-62
2021/05/25 02:40:53;;;;;;;3.58;2.50;;;;;;;;;;5094787;28;20446;-62
2021/05/25 02:43:22;;;;;;;2.75;2.55;;;;;;;;;;5094643;28;20074;-62
2021/05/25 02:45:48;;;;;;;3.17;2.75;;;;;;;;;;5094604;28;20012;-62
2021/05/25 02:48:16;;;;;;;3.40;2.92;;;;;;;;;;5094552;28;20031;-62
2021/05/25 02:50:41;;;;;;;2.97;2.70;;;;;;;;;;5093513;28;20054;-62
2021/05/25 02:53:07;;;;;;;2.42;2.22;;;;;;;;;;5094734;28;20409;-62
2021/05/25 02:55:33;;;;;;;4.60;2.33;;;;;;;;;;5094180;28;20020;-62
2021/05/25 02:57:59;;;;;;;2.63;2.30;;;;;;;;;;5094483;28;20058;-62
2021/05/25 03:00:29;;;;;;;2.67;2.05;;;;;;;;;;5093094;28;20026;-62
2021/05/25 03:02:55;;;;;;;2.05;1.85;;;;;;;;;;5094385;28;20039;-61
2021/05/25 03:05:23;;;;;;;2.53;2.13;;;;;;;;;;5094423;28;20015;-62
2021/05/25 03:07:48;;;;;;;2.50;2.25;;;;;;;;;;5094212;28;20102;-61
2021/05/25 03:10:15;;;;;;;3.22;2.10;;;;;;;;;;5094495;28;20051;-62
2021/05/25 03:12:40;;;;;;;3.17;2.08;;;;;;;;;;5094026;28;20115;-65
2021/05/25 03:15:07;;;;;;;2.55;1.85;;;;;;;;;;5094273;28;20418;-65
2021/05/25 03:17:33;;;;;;;4.55;2.20;;;;;;;;;;5094169;28;20069;-64
2021/05/25 03:19:58;;;;;;;5.30;3.30;;;;;;;;;;5094258;28;20442;-64
2021/05/25 03:22:24;;;;;;;3.78;2.22;;;;;;;;;;5094252;28;20032;-65
2021/05/25 03:24:49;;;;;;;2.97;2.10;;;;;;;;;;5092824;28;20518;-65
2021/05/25 03:27:15;;;;;;;1.77;1.65;;;;;;;;;;5094076;28;20023;-66
2021/05/25 03:29:40;;;;;;;2.78;1.85;;;;;;;;;;5092561;28;20107;-66
2021/05/25 03:32:06;;;;;;;3.15;2.10;;;;;;;;;;5094024;28;20032;-65
2021/05/25 03:34:32;;;;;;;2.78;1.88;;;;;;;;;;5093804;28;20347;-66
2021/05/25 03:36:58;;;;;;;1.60;1.50;;;;;;;;;;5093985;28;20073;-66
2021/05/25 03:39:24;;;;;;;3.35;1.75;;;;;;;;;;5093929;28;20102;-66
2021/05/25 03:41:49;;;;;;;2.22;1.50;;;;;;;;;;5093981;28;20038;-66
2021/05/25 03:44:15;;;;;;;2.20;1.75;;;;;;;;;;5093539;28;20039;-67
2021/05/25 03:46:44;;;;;;;2.53;1.55;;;;;;;;;;5094029;28;20037;-67
2021/05/25 03:49:10;;;;;;;2.00;1.70;;;;;;;;;;5093798;28;20016;-67
2021/05/25 03:51:35;;;;;;;2.88;1.50;;;;;;;;;;5093896;28;20561;-66
2021/05/25 03:54:07;;;;;;;2.67;1.60;;;;;;;;;;5093760;28;20052;-66
2021/05/25 03:56:45;;;;;;;2.00;1.30;;;;;;;;;;5092231;28;20457;-67
2021/05/25 03:59:11;;;;;;;1.83;1.67;;;;;;;;;;5093052;28;20036;-62
2021/05/25 04:01:37;;;;;;;2.17;1.27;;;;;;;;;;5093349;28;20111;-67
2021/05/25 04:04:03;;;;;;;2.22;1.50;;;;;;;;;;5092117;28;20539;-67
2021/05/25 04:06:28;;;;;;;3.28;1.55;;;;;;;;;;5092843;28;20024;-68
2021/05/25 04:08:54;;;;;;;3.90;1.38;;;;;;;;;;5093685;28;20039;-68
2021/05/25 04:11:19;;;;;;;3.08;1.52;;;;;;;;;;5092270;28;20051;-69
2021/05/25 04:13:45;;;;;;;2.47;1.35;;;;;;;;;;5092293;28;20024;-69
2021/05/25 04:16:12;;;;;;;1.33;1.20;;;;;;;;;;5093676;28;20103;-69
2021/05/25 04:18:38;;;;;;;1.45;1.20;;;;;;;;;;5093773;28;20032;-69
2021/05/25 04:21:03;;;;;;;1.50;1.40;;;;;;;;;;5093504;28;20024;-67
2021/05/25 04:23:29;;;;;;;5.00;1.65;;;;;;;;;;5093159;28;20115;-67
2021/05/25 04:25:55;;;;;;;1.45;1.35;;;;;;;;;;5093303;28;20027;-67
2021/05/25 04:28:21;;;;;;;1.60;1.48;;;;;;;;;;5092091;28;20488;-67
2021/05/25 04:30:46;;;;;;;1.90;1.63;;;;;;;;;;5093234;28;20024;-68
2021/05/25 04:33:12;;;;;;;1.88;1.30;;;;;;;;;;5092838;28;20028;-68
2021/05/25 04:35:38;;;;;;;2.05;1.40;;;;;;;;;;5090973;28;20040;-68
2021/05/25 04:38:04;;;;;;;1.63;1.52;;;;;;;;;;5093244;28;20039;-68
2021/05/25 04:40:30;;;;;;;2.42;1.67;;;;;;;;;;5092760;28;20489;-62
2021/05/25 04:42:56;;;;;;;1.65;1.40;;;;;;;;;;5093150;28;20077;-62
2021/05/25 04:45:21;;;;;;;1.55;1.42;;;;;;;;;;5091742;28;20389;-63
2021/05/25 04:47:47;;;;;;;1.27;1.10;;;;;;;;;;5093162;28;20059;-63
2021/05/25 04:50:13;;;;;;;3.42;1.48;;;;;;;;;;5091904;28;20426;-62
2021/05/25 04:52:39;;;;;;;5.25;1.30;;;;;;;;;;5091751;28;20066;-62
2021/05/25 04:55:06;;;;;;;1.45;1.20;;;;;;;;;;5091662;28;20043;-62
2021/05/25 04:57:32;;;;;;;2.03;1.40;;;;;;;;;;5091581;28;20375;-63
2021/05/25 04:59:57;;;;;;;1.50;1.40;;;;;;;;;;5090507;28;20023;-62
2021/05/25 05:02:23;;;;;;;2.65;1.20;;;;;;;;;;5092215;28;20024;-63
2021/05/25 05:04:48;;;;;;;1.35;1.25;;;;;;;;;;5091400;28;20059;-63
2021/05/25 05:07:14;;;;;;;2.67;1.40;;;;;;;;;;5091500;28;20020;-63
2021/05/25 05:09:39;;;;;;;1.55;1.45;;;;;;;;;;5091420;28;20358;-63
2021/05/25 05:12:05;;;;;;;3.30;1.63;;;;;;;;;;5093285;28;20024;-63
2021/05/25 05:14:31;;;;;;;1.63;1.27;;;;;;;;;;5094901;28;20035;-63
2021/05/25 05:17:02;;;;;;;3.58;2.17;;;;;;;;;;5096369;28;20494;-63
2021/05/25 05:19:28;;;;;;;2.92;2.67;;;;;;;;;;5095081;28;20043;-63
2021/05/25 05:21:54;;;;;;;3.42;2.53;;;;;;;;;;5096374;28;20020;-63
2021/05/25 05:24:20;;;;;;;2.70;2.50;;;;;;;;;;5096116;28;20477;-63
2021/05/25 05:26:45;;;;;;;3.60;2.60;;;;;;;;;;5095090;28;20027;-63
2021/05/25 05:29:11;;;;;;;2.75;2.55;;;;;;;;;;5094245;28;20042;-63
2021/05/25 05:31:39;;;;;;;2.42;2.30;;;;;;;;;;5095477;28;20027;-63
2021/05/25 05:34:04;;;;;;;2.50;2.30;;;;;;;;;;5095699;28;20055;-63
2021/05/25 05:36:30;;;;;;;2.00;1.90;;;;;;;;;;5095819;28;20471;-63
2021/05/25 05:38:56;;;;;;;3.13;1.70;;;;;;;;;;5094696;28;20027;-63
2021/05/25 05:41:21;;;;;;;1.70;1.60;;;;;;;;;;5094663;28;20093;-63
2021/05/25 05:43:47;;;;;;;1.67;1.50;;;;;;;;;;5094391;28;20497;-63
2021/05/25 05:46:16;;;;;;;3.33;1.67;;;;;;;;;;5094968;28;20055;-63
2021/05/25 05:48:41;;;;;;;1.75;1.65;;;;;;;;;;5094059;28;20069;-63
2021/05/25 05:51:07;;;;;;;2.22;1.50;;;;;;;;;;5094015;28;20466;-63
2021/05/25 05:53:33;;;;;;;1.63;1.52;;;;;;;;;;5094037;28;20034;-63
2021/05/25 05:55:58;;;;;;;1.60;1.50;;;;;;;;;;5095536;28;20470;-62
2021/05/25 05:58:24;;;;;;;2.67;1.80;;;;;;;;;;5095900;28;20382;-63
2021/05/25 06:00:50;;;;;;;2.25;1.58;;;;;;;;;;5095331;28;20023;-63
2021/05/25 06:03:18;;;;;;;1.75;1.63;;;;;;;;;;5095580;28;20394;-63
2021/05/25 06:05:43;;;;;;;1.80;1.70;;;;;;;;;;5095189;28;20023;-63
2021/05/25 06:08:09;;;;;;;1.73;1.63;;;;;;;;;;5095355;28;20024;-63
2021/05/25 06:10:36;;;;;;;2.30;2.10;;;;;;;;;;5095632;28;20012;-63
2021/05/25 06:13:02;;;;;;;3.63;2.40;;;;;;;;;;5095417;28;20036;-63
2021/05/25 06:15:27;;;;;;;2.17;2.00;;;;;;;;;;5095344;28;20073;-63
2021/05/25 06:17:53;;;;;;;2.58;1.77;;;;;;;;;;5095228;28;20048;-63
2021/05/25 06:20:19;;;;;;;2.85;2.10;;;;;;;;;;5095194;28;20023;-63
2021/05/25 06:22:45;;;;;;;2.15;1.67;;;;;;;;;;5094253;28;20034;-65
2021/05/25 06:25:11;;;;;;;3.05;2.00;;;;;;;;;;5094558;28;20674;-65
2021/05/25 06:27:36;;;;;;;2.05;1.85;;;;;;;;;;5093729;28;20032;-65
2021/05/25 06:30:03;;;;;;;3.53;1.90;;;;;;;;;;5093708;28;20056;-65
2021/05/25 06:32:29;;;;;;;3.60;2.67;;;;;;;;;;5094857;28;20024;-65
2021/05/25 06:34:54;;;;;;;2.67;2.17;;;;;;;;;;5094673;28;20023;-65
2021/05/25 06:37:20;;;;;;;3.33;2.30;;;;;;;;;;5094791;28;20028;-66
2021/05/25 06:39:46;;;;;;;3.33;3.00;;;;;;;;;;5094840;28;20047;-65
2021/05/25 06:42:11;;;;;;;5.25;3.67;;;;;;;;;;5094593;28;20188;-65
2021/05/25 06:44:37;;;;;;;5.00;3.50;;;;;;;;;;5093204;28;20020;-65
2021/05/25 06:47:03;;;;;;;4.88;3.05;;;;;;;;;;5094173;28;20363;-66
2021/05/25 06:49:28;;;;;;;9.10;4.97;;;;;;;;;;5092335;28;20044;-65
2021/05/25 06:51:54;;;;;;;8.23;4.65;;;;;;;;;;5092167;28;20492;-65
2021/05/25 06:54:19;;;;;;;10.63;5.03;;;;;;;;;;5092162;28;20035;-65
2021/05/25 06:56:45;;;;;;;11.95;5.53;;;;;;;;;;5092071;28;20545;-65
2021/05/25 06:59:10;;;;;;;8.68;5.53;;;;;;;;;;5092064;28;20807;-65
2021/05/25 07:01:35;;;;;;;9.35;5.63;;;;;;;;;;5092604;28;20030;-65
2021/05/25 07:04:01;;;;;;;11.18;6.43;;;;;;;;;;5093602;28;20115;-65
2021/05/25 07:06:27;;;;;;;8.13;5.80;;;;;;;;;;5094053;28;20074;-65
2021/05/25 07:08:53;;;;;;;7.70;5.53;;;;;;;;;;5093999;28;20125;-65
2021/05/25 07:11:20;;;;;;;7.22;5.15;;;;;;;;;;5092585;28;20031;-65
2021/05/25 07:13:45;;;;;;;5.88;5.30;;;;;;;;;;5093925;28;20023;-65
2021/05/25 07:16:11;;;;;;;5.97;5.45;;;;;;;;;;5093868;28;20036;-65
2021/05/25 07:18:36;;;;;;;4.97;4.55;;;;;;;;;;5093879;28;20027;-65
2021/05/25 07:21:02;;;;;;;7.03;5.35;;;;;;;;;;5093860;28;20411;-65
2021/05/25 07:23:28;;;;;;;5.80;4.45;;;;;;;;;;5093814;28;20458;-65
2021/05/25 07:25:53;;;;;;;6.10;4.85;;;;;;;;;;5093674;28;20131;-65
2021/05/25 07:28:19;;;;;;;4.55;4.10;;;;;;;;;;5093621;28;20070;-65
2021/05/25 07:30:47;;;;;;;4.82;4.10;;;;;;;;;;5092450;28;20455;-65
2021/05/25 07:33:12;;;;;;;7.18;4.35;;;;;;;;;;5093204;28;20032;-65
2021/05/25 07:35:38;;;;;;;5.35;4.85;;;;;;;;;;5092438;28;20036;-65
2021/05/25 07:38:03;;;;;;;4.40;4.00;;;;;;;;;;5092638;28;20031;-65
2021/05/25 07:40:29;;;;;;;4.32;3.92;;;;;;;;;;5092618;28;20443;-65
2021/05/25 07:42:54;;;;;;;4.80;4.25;;;;;;;;;;5092049;28;20063;-65
2021/05/25 07:45:20;;;;;;;7.45;4.55;;;;;;;;;;5093633;28;20481;-65
2021/05/25 07:47:45;;;;;;;6.05;4.40;;;;;;;;;;5093512;28;20493;-65
2021/05/25 07:50:14;;;;;;;5.13;4.03;;;;;;;;;;5093808;28;20024;-65
2021/05/25 07:52:41;;;;;;;5.10;4.10;;;;;;;;;;5093533;28;20067;-65
2021/05/25 07:55:07;;;;;;;5.50;3.80;;;;;;;;;;5093522;28;20103;-65
2021/05/25 07:57:33;;;;;;;4.38;3.92;;;;;;;;;;5092319;28;20028;-64
2021/05/25 07:59:58;;;;;;;4.43;3.97;;;;;;;;;;5093554;28;20135;-65
2021/05/25 08:02:24;;;;;;;4.18;3.70;;;;;;;;;;5093512;28;20024;-65
2021/05/25 08:04:49;;;;;;;3.78;3.47;;;;;;;;;;5093230;28;20398;-65
2021/05/25 08:07:15;;;;;;;4.72;4.25;;;;;;;;;;5092082;28;20028;-65
2021/05/25 08:09:40;;;;;;;3.78;3.17;;;;;;;;;;5092628;28;20016;-65
2021/05/25 08:12:06;;;;;;;4.00;3.25;;;;;;;;;;5093331;28;20470;-69
2021/05/25 08:14:33;;;;;;;4.85;3.97;;;;;;;;;;5093624;28;20020;-70
2021/05/25 08:17:06;;;;;;;3.90;3.63;;;;;;;;;;5093468;28;20123;-70
2021/05/25 08:19:33;;;;;;;5.28;3.35;;;;;;;;;;5093433;28;20085;-70
2021/05/25 08:21:59;;;;;;;5.10;4.50;;;;;;;;;;5093313;28;20035;-70
2021/05/25 08:24:25;;;;;;;4.05;3.75;;;;;;;;;;5093306;28;20032;-70
2021/05/25 08:26:50;;;;;;;2.92;2.72;;;;;;;;;;5093225;28;20220;-70
2021/05/25 08:29:15;;;;;;;3.00;2.67;;;;;;;;;;5093532;28;20021;-70
2021/05/25 08:31:41;;;;;;;3.20;3.00;;;;;;;;;;5093321;28;20027;-70
2021/05/25 08:34:07;;;;;;;3.50;3.20;;;;;;;;;;5093118;28;20055;-70
2021/05/25 08:36:34;;;;;;;3.60;3.30;;;;;;;;;;5092615;28;20040;-70
2021/05/25 08:39:00;;;;;;;3.63;3.10;;;;;;;;;;5093011;28;20036;-70
2021/05/25 08:41:26;;;;;;;3.63;3.33;;;;;;;;;;5093421;28;20032;-71
2021/05/25 08:43:51;;;;;;;3.95;3.08;;;;;;;;;;5092803;28;20457;-70
2021/05/25 08:46:17;;;;;;;4.28;3.22;;;;;;;;;;5094598;28;20103;-70
2021/05/25 08:48:43;;;;;;;3.50;2.90;;;;;;;;;;5096807;28;20020;-70
2021/05/25 08:51:09;;;;;;;2.67;2.47;;;;;;;;;;5096939;28;20030;-70
2021/05/25 08:53:35;;;;;;;2.88;2.67;;;;;;;;;;5096668;28;20428;-70
2021/05/25 08:56:01;;;;;;;2.40;2.20;;;;;;;;;;5096681;28;20111;-70
2021/05/25 08:58:27;;;;;;;2.88;2.63;;;;;;;;;;5096939;28;20032;-71
2021/05/25 09:00:53;;;;;;;2.80;2.40;;;;;;;;;;5096906;28;20519;-71
2021/05/25 09:03:19;;;;;;;3.03;2.47;;;;;;;;;;5095215;28;20555;-70
2021/05/25 09:05:49;;;;;;;3.25;2.65;;;;;;;;;;5096676;28;20112;-70
2021/05/25 09:08:14;;;;;;;3.13;2.53;;;;;;;;;;5096863;28;20110;-70
2021/05/25 09:10:59;;;;;;;2.85;2.60;;;;;;;;;;5095455;28;20111;-70
2021/05/25 09:13:25;;;;;;;2.47;2.28;;;;;;;;;;5096976;28;20028;-70
2021/05/25 09:15:56;;;;;;;2.53;2.33;;;;;;;;;;5096344;28;20016;-70
2021/05/25 09:18:23;;;;;;;2.95;2.70;;;;;;;;;;5096641;28;20031;-70
2021/05/25 09:20:53;;;;;;;2.83;2.63;;;;;;;;;;5095284;28;20065;-70
2021/05/25 09:23:20;;;;;;;3.03;2.72;;;;;;;;;;5096030;28;20028;-70
2021/05/25 09:25:50;;;;;;;2.83;2.28;;;;;;;;;;5096146;28;20180;-70
2021/05/25 09:28:17;;;;;;;2.85;2.42;;;;;;;;;;5096002;28;20024;-70
2021/05/25 09:30:45;;;;;;;3.50;2.60;;;;;;;;;;5096018;28;20024;-70
2021/05/25 09:33:10;;;;;;;3.13;2.67;;;;;;;;;;5095806;28;20533;-70
2021/05/25 09:35:38;;;;;;;3.05;2.85;;;;;;;;;;5095802;28;20056;-70
2021/05/25 09:38:25;;;;;;;3.88;2.83;;;;;;;;;;5096451;28;20071;-71
2021/05/25 09:40:51;;;;;;;3.67;3.33;;;;;;;;;;5095941;28;20024;-70
2021/05/25 09:43:18;;;;;;;3.25;2.75;;;;;;;;;;5095989;28;20024;-69
2021/05/25 09:46:03;;;;;;;3.50;3.05;;;;;;;;;;5096080;28;20115;-70
2021/05/25 09:48:30;;;;;;;3.92;3.33;;;;;;;;;;5095932;28;20028;-70
2021/05/25 09:50:56;;;;;;;4.47;4.07;;;;;;;;;;5094716;28;20012;-70
2021/05/25 09:53:23;;;;;;;7.88;5.55;;;;;;;;;;5095705;28;20466;-70
2021/05/25 09:55:53;;;;;;;10.23;5.63;;;;;;;;;;5095592;28;20077;-70
2021/05/25 09:58:21;;;;;;;7.30;4.68;;;;;;;;;;5095002;28;20414;-68
2021/05/25 10:00:46;;;;;;;10.35;5.35;;;;;;;;;;5095748;28;20016;-68
2021/05/25 10:03:15;;;;;;;10.63;6.22;;;;;;;;;;5094255;28;20032;-68
2021/05/25 10:05:44;;;;;;;8.35;5.03;;;;;;;;;;5095769;28;20024;-68
2021/05/25 10:08:10;;;;;;;10.20;6.43;;;;;;;;;;5094247;28;20028;-68
2021/05/25 10:10:35;;;;;;;10.30;6.20;;;;;;;;;;5095216;28;20023;-68
2021/05/25 10:13:01;;;;;;;8.85;5.55;;;;;;;;;;5095564;28;20371;-68
2021/05/25 10:15:28;;;;;;;9.40;6.75;;;;;;;;;;5095103;28;20115;-68
2021/05/25 10:20:26;;;;;;;7.25;5.13;;;;;;;;;;5095427;28;20485;-68
2021/05/25 10:22:51;;;;;;;9.23;4.47;;;;;;;;;;5094917;28;20099;-68
2021/05/25 10:25:18;;;;;;;3.72;3.42;;;;;;;;;;5093523;28;20453;-68
2021/05/25 10:27:47;;;;;;;3.35;3.05;;;;;;;;;;5094663;28;20103;-68
2021/05/25 10:30:22;;;;;;;4.93;3.17;;;;;;;;;;5095122;28;20048;-66
2021/05/25 10:32:48;;;;;;;3.42;3.13;;;;;;;;;;5094937;28;20024;-66
2021/05/25 10:35:20;;;;;;;5.40;3.03;;;;;;;;;;5093010;28;20082;-66
2021/05/25 10:38:04;;;;;;;3.67;3.25;;;;;;;;;;5095078;28;20081;-66
2021/05/25 10:40:40;;;;;;;2.63;2.42;;;;;;;;;;5094971;28;20107;-66
2021/05/25 10:43:24;;;;;;;3.92;2.90;;;;;;;;;;5093227;28;20067;-66
2021/05/25 10:45:51;;;;;;;5.25;3.40;;;;;;;;;;5094626;28;20438;-68
2021/05/25 10:48:18;;;;;;;5.30;3.47;;;;;;;;;;5094462;28;20008;-68
2021/05/25 10:50:48;;;;;;;3.72;3.33;;;;;;;;;;5092986;28;20024;-68
2021/05/25 10:53:23;;;;;;;5.85;3.80;;;;;;;;;;5094331;28;20035;-68
2021/05/25 10:55:48;;;;;;;6.00;3.95;;;;;;;;;;5093053;28;20035;-68
2021/05/25 10:58:17;;;;;;;4.38;3.50;;;;;;;;;;5094488;28;20024;-68
2021/05/25 11:00:42;;;;;;;3.58;3.28;;;;;;;;;;5094298;28;20035;-68
2021/05/25 11:03:11;;;;;;;3.42;3.13;;;;;;;;;;5094201;28;20024;-67
2021/05/25 11:05:37;;;;;;;2.17;1.83;;;;;;;;;;5093264;28;20121;-68
2021/05/25 11:08:24;;;;;;;1.63;1.52;;;;;;;;;;5094047;28;20095;-67
2021/05/25 11:10:57;;;;;;;4.85;1.20;;;;;;;;;;5094299;28;20072;-67
2021/05/25 11:13:27;;;;;;;2.03;0.90;;;;;;;;;;5094251;28;20032;-67
2021/05/25 11:16:09;;;;;;;1.65;1.52;;;;;;;;;;5094404;28;20031;-65
2021/05/25 11:21:31;;;;;;;1.25;1.00;;;;;;;;;;5094122;28;20034;-65
2021/05/25 11:23:58;;;;;;;1.15;1.05;;;;;;;;;;5093534;28;20028;-65
2021/05/25 11:26:43;;;;;;;0.80;0.80;;;;;;;;;;5093916;28;20066;-65
2021/05/25 11:29:13;;;;;;;0.50;0.50;;;;;;;;;;5093957;28;20534;-65
2021/05/25 11:31:39;;;;;;;0.70;0.70;;;;;;;;;;5093893;28;20020;-65
2021/05/25 11:34:05;;;;;;;0.73;0.70;;;;;;;;;;5093816;28;20390;-65
2021/05/25 11:36:31;;;;;;;1.23;0.80;;;;;;;;;;5092576;28;20482;-66
2021/05/25 11:38:57;;;;;;;1.70;0.65;;;;;;;;;;5093885;28;20036;-65
2021/05/25 11:41:22;;;;;;;0.65;0.60;;;;;;;;;;5093804;28;20096;-65
2021/05/25 11:43:48;;;;;;;1.63;0.80;;;;;;;;;;5093612;28;20154;-65
2021/05/25 11:46:13;;;;;;;0.80;0.80;;;;;;;;;;5094001;28;20031;-66
2021/05/25 11:48:39;;;;;;;0.82;0.82;;;;;;;;;;5093576;28;20020;-65
2021/05/25 11:51:09;;;;;;;0.90;0.80;;;;;;;;;;5093711;28;20072;-66
2021/05/25 11:53:34;;;;;;;0.82;0.70;;;;;;;;;;5093880;28;20486;-65
2021/05/25 11:56:00;;;;;;;0.68;0.68;;;;;;;;;;5093620;28;20055;-65
2021/05/25 11:58:25;;;;;;;0.93;0.80;;;;;;;;;;5092138;28;20028;-66
2021/05/25 12:00:50;;;;;;;1.33;0.90;;;;;;;;;;5093572;28;20386;-65
2021/05/25 12:03:16;;;;;;;1.65;1.27;;;;;;;;;;5093422;28;20079;-66
2021/05/25 12:05:43;;;;;;;1.30;1.20;;;;;;;;;;5093235;28;20016;-68
2021/05/25 12:08:10;;;;;;;1.15;1.05;;;;;;;;;;5093421;28;20027;-68
2021/05/25 12:10:36;;;;;;;1.00;0.90;;;;;;;;;;5092078;28;20040;-69
2021/05/25 12:13:02;;;;;;;2.00;1.20;;;;;;;;;;5093345;28;20031;-69
2021/05/25 12:15:28;;;;;;;1.05;1.05;;;;;;;;;;5091803;28;20020;-69
2021/05/25 12:17:58;;;;;;;1.65;1.30;;;;;;;;;;5093299;28;20060;-66
2021/05/25 12:20:37;;;;;;;1.90;1.53;;;;;;;;;;5095193;28;20032;-66
2021/05/25 12:23:06;;;;;;;1.50;1.40;;;;;;;;;;5097321;28;20318;-66
2021/05/25 12:25:34;;;;;;;1.52;1.40;;;;;;;;;;5096922;28;20020;-66
2021/05/25 12:28:13;;;;;;;3.00;1.92;;;;;;;;;;5097541;28;20542;-66
2021/05/25 12:30:47;;;;;;;3.22;1.40;;;;;;;;;;5097486;28;20025;-66
2021/05/25 12:33:20;;;;;;;2.35;1.60;;;;;;;;;;5096815;28;20035;-66
2021/05/25 12:35:46;;;;;;;1.50;1.40;;;;;;;;;;5095863;28;20036;-66
2021/05/25 12:38:15;;;;;;;3.05;1.75;;;;;;;;;;5095560;28;20028;-66
2021/05/25 12:40:41;;;;;;;1.35;1.25;;;;;;;;;;5097116;28;20605;-66
2021/05/25 12:43:21;;;;;;;1.33;1.25;;;;;;;;;;5097046;28;20389;-66
2021/05/25 12:45:47;;;;;;;1.70;1.60;;;;;;;;;;5097013;28;20031;-66
2021/05/25 12:48:13;;;;;;;2.38;1.65;;;;;;;;;;5096850;28;20023;-66
2021/05/25 12:50:43;;;;;;;1.42;1.30;;;;;;;;;;5096238;28;20040;-66
2021/05/25 12:53:09;;;;;;;1.65;1.30;;;;;;;;;;5094514;28;20024;-66
2021/05/25 12:55:38;;;;;;;13.00;9.10;;;;;;;;;;5094482;28;20016;-66
2021/05/25 12:58:04;;;;;;;1.50;1.40;;;;;;;;;;5094553;28;20024;-66
2021/05/25 13:00:31;;;;;;;1.42;1.33;;;;;;;;;;5094418;28;20022;-66
2021/05/25 13:02:58;;;;;;;1.63;1.33;;;;;;;;;;5094406;28;20031;-65
2021/05/25 13:05:27;;;;;;;2.90;1.45;;;;;;;;;;5094327;28;20056;-66
2021/05/25 13:08:02;;;;;;;1.30;1.20;;;;;;;;;;5095906;28;20031;-66
2021/05/25 13:10:32;;;;;;;1.70;1.40;;;;;;;;;;5096278;28;20107;-66
2021/05/25 13:13:08;;;;;;;1.80;1.70;;;;;;;;;;5094362;28;20030;-66
2021/05/25 13:15:38;;;;;;;1.63;1.52;;;;;;;;;;5096740;28;20031;-66
2021/05/25 13:18:04;;;;;;;1.60;1.50;;;;;;;;;;5096462;28;20028;-66
2021/05/25 13:20:29;;;;;;;1.45;1.35;;;;;;;;;;5096417;28;20020;-66
2021/05/25 13:22:55;;;;;;;2.80;2.13;;;;;;;;;;5096255;28;20077;-65
2021/05/25 13:25:28;;;;;;;2.67;2.20;;;;;;;;;;5096196;28;20481;-65
2021/05/25 13:27:54;;;;;;;2.33;1.95;;;;;;;;;;5096268;28;20016;-65
2021/05/25 13:30:30;;;;;;;1.38;1.20;;;;;;;;;;5094991;28;20484;-65
2021/05/25 13:32:56;;;;;;;1.38;1.27;;;;;;;;;;5094819;28;20031;-65
2021/05/25 13:35:21;;;;;;;1.77;1.67;;;;;;;;;;5094275;28;20394;-65
2021/05/25 13:37:47;;;;;;;2.17;1.80;;;;;;;;;;5096135;28;20044;-66
2021/05/25 13:40:13;;;;;;;2.03;1.90;;;;;;;;;;5096403;28;20028;-65
2021/05/25 13:42:38;;;;;;;1.98;1.80;;;;;;;;;;5095977;28;20028;-65
2021/05/25 13:45:04;;;;;;;2.28;1.90;;;;;;;;;;5096000;28;20049;-66
2021/05/25 13:47:30;;;;;;;2.00;1.75;;;;;;;;;;5095833;28;20397;-66
2021/05/25 13:49:56;;;;;;;2.67;2.25;;;;;;;;;;5095755;28;20372;-66
2021/05/25 13:52:21;;;;;;;2.53;1.75;;;;;;;;;;5095807;28;20024;-65
2021/05/25 13:54:49;;;;;;;1.98;1.77;;;;;;;;;;5095726;28;20523;-66
2021/05/25 13:57:19;;;;;;;2.28;1.70;;;;;;;;;;5095758;28;20083;-66
2021/05/25 14:02:12;;;;;;;2.13;1.70;;;;;;;;;;5095900;28;20067;-65
2021/05/25 14:04:38;;;;;;;1.75;1.52;;;;;;;;;;5095621;28;20028;-66
2021/05/25 14:07:12;;;;;;;1.92;1.73;;;;;;;;;;5095222;28;20039;-65
2021/05/25 14:09:38;;;;;;;1.80;1.63;;;;;;;;;;5095108;28;20035;-65
2021/05/25 14:12:04;;;;;;;3.95;1.80;;;;;;;;;;5095379;28;20390;-65
2021/05/25 14:14:29;;;;;;;4.22;2.50;;;;;;;;;;5094372;28;20036;-65
2021/05/25 14:16:55;;;;;;;2.60;2.13;;;;;;;;;;5095545;28;20024;-65
2021/05/25 14:19:20;;;;;;;2.88;2.58;;;;;;;;;;5094801;28;20031;-65
2021/05/25 14:21:46;;;;;;;2.35;2.15;;;;;;;;;;5094350;28;20008;-66
2021/05/25 14:24:11;;;;;;;5.22;3.47;;;;;;;;;;5094638;28;20028;-66
2021/05/25 14:26:37;;;;;;;4.45;3.03;;;;;;;;;;5094573;28;20108;-66
2021/05/25 14:29:03;;;;;;;5.68;3.33;;;;;;;;;;5093509;28;20051;-66
2021/05/25 14:31:29;;;;;;;4.68;3.70;;;;;;;;;;5094519;28;20028;-65
2021/05/25 14:33:54;;;;;;;5.53;4.10;;;;;;;;;;5093460;28;20031;-65
2021/05/25 14:36:20;;;;;;;3.40;3.10;;;;;;;;;;5092925;28;20407;-66
2021/05/25 14:38:45;;;;;;;3.65;2.55;;;;;;;;;;5094647;28;20096;-66
2021/05/25 14:41:11;;;;;;;3.55;3.00;;;;;;;;;;5094324;28;20042;-66
2021/05/25 14:43:36;;;;;;;4.38;2.97;;;;;;;;;;5093743;28;20031;-66
2021/05/25 14:46:02;;;;;;;5.32;3.13;;;;;;;;;;5094480;28;20008;-61
2021/05/25 14:48:28;;;;;;;2.92;2.38;;;;;;;;;;5094303;28;20473;-64
2021/05/25 14:50:54;;;;;;;2.65;2.42;;;;;;;;;;5094756;28;20030;-65